sensor_id;sensor_type;location;lat;lon;timestamp;temperature;humidity
4453;DHT22;2239;48.152;11.584;2024-01-30T00:01:37;3.40;99.90
4453;DHT22;2239;48.152;11.584;2024-01-30T00:04:02;3.40;99.90
4453;DHT22;2239;48.152;11.584;2024-01-30T00:06:28;3.40;99.90
4453;DHT22;2239;48.152;11.584;2024-01-30T00:08:53;3.40;99.90
4453;DHT22;2239;48.152;11.584;2024-01-30T00:11:19;3.40;99.90
4453;DHT22;2239;48.152;11.584;2024-01-30T00:13:44;3.40;99.90
4453;DHT22;2239;48.152;11.584;2024-01-30T00:16:24;3.40;99.90
4453;DHT22;2239;48.152;11.584;2024-01-30T00:18:53;3.30;99.90
4453;DHT22;2239;48.152;11.584;2024-01-30T00:21:19;3.30;99.90
4453;DHT22;2239;48.152;11.584;2024-01-30T00:23:45;3.30;99.90
4453;DHT22;2239;48.152;11.584;2024-01-30T00:26:10;3.30;99.90
4453;DHT22;2239;48.152;11.584;2024-01-30T00:28:37;3.20;99.90
4453;DHT22;2239;48.152;11.584;2024-01-30T00:31:03;3.20;99.90
4453;DHT22;2239;48.152;11.584;2024-01-30T00:33:29;3.10;99.90
4453;DHT22;2239;48.152;11.584;2024-01-30T00:35:55;3.20;99.90
4453;DHT22;2239;48.152;11.584;2024-01-30T00:38:21;3.20;99.90
4453;DHT22;2239;48.152;11.584;2024-01-30T00:40:52;3.20;99.90
4453;DHT22;2239;48.152;11.584;2024-01-30T00:43:18;3.20;99.90
4453;DHT22;2239;48.152;11.584;2024-01-30T00:45:44;3.20;99.90
4453;DHT22;2239;48.152;11.584;2024-01-30T00:48:09;3.10;99.90
4453;DHT22;2239;48.152;11.584;2024-01-30T00:50:35;3.10;99.90
4453;DHT22;2239;48.152;11.584;2024-01-30T00:53:00;3.20;99.90
4453;DHT22;2239;48.152;11.584;2024-01-30T00:55:26;3.10;99.90
4453;DHT22;2239;48.152;11.584;2024-01-30T00:57:51;3.20;99.90
4453;DHT22;2239;48.152;11.584;2024-01-30T01:00:17;3.20;99.90
4453;DHT22;2239;48.152;11.584;2024-01-30T01:02:43;3.20;99.90
4453;DHT22;2239;48.152;11.584;2024-01-30T01:05:09;3.20;99.90
4453;DHT22;2239;48.152;11.584;2024-01-30T01:07:35;3.20;99.90
4453;DHT22;2239;48.152;11.584;2024-01-30T01:10:00;3.20;99.90
4453;DHT22;2239;48.152;11.584;2024-01-30T01:12:26;3.30;99.90
4453;DHT22;2239;48.152;11.584;2024-01-30T01:14:51;3.30;99.90
4453;DHT22;2239;48.152;11.584;2024-01-30T01:17:17;3.30;99.90
4453;DHT22;2239;48.152;11.584;2024-01-30T01:19:44;3.30;99.90
4453;DHT22;2239;48.152;11.584;2024-01-30T01:22:09;3.30;99.90
4453;DHT22;2239;48.152;11.584;2024-01-30T01:24:35;3.30;99.90
4453;DHT22;2239;48.152;11.584;2024-01-30T01:27:01;3.20;99.90
4453;DHT22;2239;48.152;11.584;2024-01-30T01:29:27;3.10;99.90
4453;DHT22;2239;48.152;11.584;2024-01-30T01:31:58;3.10;99.90
4453;DHT22;2239;48.152;11.584;2024-01-30T01:34:24;3.10;99.90
4453;DHT22;2239;48.152;11.584;2024-01-30T01:36:49;3.10;99.90
4453;DHT22;2239;48.152;11.584;2024-01-30T01:39:15;3.10;99.90
4453;DHT22;2239;48.152;11.584;2024-01-30T01:41:41;3.10;99.90
4453;DHT22;2239;48.152;11.584;2024-01-30T01:44:07;3.00;99.90
4453;DHT22;2239;48.152;11.584;2024-01-30T01:46:34;3.00;99.90
4453;DHT22;2239;48.152;11.584;2024-01-30T01:49:02;3.10;99.90
4453;DHT22;2239;48.152;11.584;2024-01-30T01:51:29;3.10;99.90
4453;DHT22;2239;48.152;11.584;2024-01-30T01:53:56;3.10;99.90
4453;DHT22;2239;48.152;11.584;2024-01-30T01:56:23;3.20;99.90
4453;DHT22;2239;48.152;11.584;2024-01-30T01:58:50;3.10;99.90
4453;DHT22;2239;48.152;11.584;2024-01-30T02:01:19;3.10;99.90
4453;DHT22;2239;48.152;11.584;2024-01-30T02:03:46;3.10;99.90
4453;DHT22;2239;48.152;11.584;2024-01-30T02:06:13;3.10;99.90
4453;DHT22;2239;48.152;11.584;2024-01-30T02:08:39;3.10;99.90
4453;DHT22;2239;48.152;11.584;2024-01-30T02:11:05;3.10;99.90
4453;DHT22;2239;48.152;11.584;2024-01-30T02:13:30;3.00;99.90
4453;DHT22;2239;48.152;11.584;2024-01-30T02:15:56;3.00;99.90
4453;DHT22;2239;48.152;11.584;2024-01-30T02:18:22;2.90;99.90
4453;DHT22;2239;48.152;11.584;2024-01-30T02:20:48;2.90;99.90
4453;DHT22;2239;48.152;11.584;2024-01-30T02:23:15;2.80;99.90
4453;DHT22;2239;48.152;11.584;2024-01-30T02:25:42;2.80;99.90
4453;DHT22;2239;48.152;11.584;2024-01-30T02:28:12;2.70;99.90
4453;DHT22;2239;48.152;11.584;2024-01-30T02:30:44;2.70;99.90
4453;DHT22;2239;48.152;11.584;2024-01-30T02:33:09;2.60;99.90
4453;DHT22;2239;48.152;11.584;2024-01-30T02:35:35;2.50;99.90
4453;DHT22;2239;48.152;11.584;2024-01-30T02:38:01;2.50;99.90
4453;DHT22;2239;48.152;11.584;2024-01-30T02:40:26;2.50;99.90
4453;DHT22;2239;48.152;11.584;2024-01-30T02:42:52;2.40;99.90
4453;DHT22;2239;48.152;11.584;2024-01-30T02:45:18;2.40;99.90
4453;DHT22;2239;48.152;11.584;2024-01-30T02:47:43;2.50;99.90
4453;DHT22;2239;48.152;11.584;2024-01-30T02:50:09;2.50;99.90
4453;DHT22;2239;48.152;11.584;2024-01-30T02:52:35;2.50;99.90
4453;DHT22;2239;48.152;11.584;2024-01-30T02:55:01;2.50;99.90
4453;DHT22;2239;48.152;11.584;2024-01-30T02:57:28;2.50;99.90
4453;DHT22;2239;48.152;11.584;2024-01-30T02:59:53;2.50;99.90
4453;DHT22;2239;48.152;11.584;2024-01-30T03:02:19;2.50;99.90
4453;DHT22;2239;48.152;11.584;2024-01-30T03:04:45;2.50;99.90
4453;DHT22;2239;48.152;11.584;2024-01-30T03:07:11;2.50;99.90
4453;DHT22;2239;48.152;11.584;2024-01-30T03:09:37;2.50;99.90
4453;DHT22;2239;48.152;11.584;2024-01-30T03:12:04;2.50;99.90
4453;DHT22;2239;48.152;11.584;2024-01-30T03:14:32;2.50;99.90
4453;DHT22;2239;48.152;11.584;2024-01-30T03:16:58;2.40;99.90
4453;DHT22;2239;48.152;11.584;2024-01-30T03:19:24;2.40;99.90
4453;DHT22;2239;48.152;11.584;2024-01-30T03:21:49;2.30;99.90
4453;DHT22;2239;48.152;11.584;2024-01-30T03:24:15;2.30;99.90
4453;DHT22;2239;48.152;11.584;2024-01-30T03:26:41;2.30;99.90
4453;DHT22;2239;48.152;11.584;2024-01-30T03:29:06;2.30;99.90
4453;DHT22;2239;48.152;11.584;2024-01-30T03:31:33;2.30;99.90
4453;DHT22;2239;48.152;11.584;2024-01-30T03:33:58;2.20;99.90
4453;DHT22;2239;48.152;11.584;2024-01-30T03:36:24;2.30;99.90
4453;DHT22;2239;48.152;11.584;2024-01-30T03:38:49;2.20;99.90
4453;DHT22;2239;48.152;11.584;2024-01-30T03:41:15;2.20;99.90
4453;DHT22;2239;48.152;11.584;2024-01-30T03:43:41;2.30;99.90
4453;DHT22;2239;48.152;11.584;2024-01-30T03:46:06;2.30;99.90
4453;DHT22;2239;48.152;11.584;2024-01-30T03:48:32;2.30;99.90
4453;DHT22;2239;48.152;11.584;2024-01-30T03:50:57;2.30;99.90
4453;DHT22;2239;48.152;11.584;2024-01-30T03:53:23;2.40;99.90
4453;DHT22;2239;48.152;11.584;2024-01-30T03:55:49;2.40;99.90
4453;DHT22;2239;48.152;11.584;2024-01-30T03:58:14;2.40;99.90
4453;DHT22;2239;48.152;11.584;2024-01-30T04:00:40;2.40;99.90
4453;DHT22;2239;48.152;11.584;2024-01-30T04:03:06;2.40;99.90
4453;DHT22;2239;48.152;11.584;2024-01-30T04:05:32;2.50;99.90
4453;DHT22;2239;48.152;11.584;2024-01-30T04:07:58;2.50;99.90
4453;DHT22;2239;48.152;11.584;2024-01-30T04:10:26;2.50;99.90
4453;DHT22;2239;48.152;11.584;2024-01-30T04:12:52;2.50;99.90
4453;DHT22;2239;48.152;11.584;2024-01-30T04:15:19;2.50;99.90
4453;DHT22;2239;48.152;11.584;2024-01-30T04:17:44;2.50;99.90
4453;DHT22;2239;48.152;11.584;2024-01-30T04:20:16;2.50;99.90
4453;DHT22;2239;48.152;11.584;2024-01-30T04:22:45;2.50;99.90
4453;DHT22;2239;48.152;11.584;2024-01-30T04:25:13;2.50;99.90
4453;DHT22;2239;48.152;11.584;2024-01-30T04:27:38;2.50;99.90
4453;DHT22;2239;48.152;11.584;2024-01-30T04:30:04;2.50;99.90
4453;DHT22;2239;48.152;11.584;2024-01-30T04:32:31;2.60;99.90
4453;DHT22;2239;48.152;11.584;2024-01-30T04:34:57;2.60;99.90
4453;DHT22;2239;48.152;11.584;2024-01-30T04:37:23;2.60;99.90
4453;DHT22;2239;48.152;11.584;2024-01-30T04:39:48;2.50;99.90
4453;DHT22;2239;48.152;11.584;2024-01-30T04:42:14;2.50;99.90
4453;DHT22;2239;48.152;11.584;2024-01-30T04:44:40;2.50;99.90
4453;DHT22;2239;48.152;11.584;2024-01-30T04:47:05;2.50;99.90
4453;DHT22;2239;48.152;11.584;2024-01-30T04:49:34;2.60;99.90
4453;DHT22;2239;48.152;11.584;2024-01-30T04:52:00;2.50;99.90
4453;DHT22;2239;48.152;11.584;2024-01-30T04:54:26;2.50;99.90
4453;DHT22;2239;48.152;11.584;2024-01-30T04:56:51;2.50;99.90
4453;DHT22;2239;48.152;11.584;2024-01-30T04:59:17;2.50;99.90
4453;DHT22;2239;48.152;11.584;2024-01-30T05:01:42;2.50;99.90
4453;DHT22;2239;48.152;11.584;2024-01-30T05:04:09;2.50;99.90
4453;DHT22;2239;48.152;11.584;2024-01-30T05:06:35;2.50;99.90
4453;DHT22;2239;48.152;11.584;2024-01-30T05:09:00;2.50;99.90
4453;DHT22;2239;48.152;11.584;2024-01-30T05:11:26;2.40;99.90
4453;DHT22;2239;48.152;11.584;2024-01-30T05:13:51;2.40;99.90
4453;DHT22;2239;48.152;11.584;2024-01-30T05:16:17;2.40;99.90
4453;DHT22;2239;48.152;11.584;2024-01-30T05:18:43;2.40;99.90
4453;DHT22;2239;48.152;11.584;2024-01-30T05:21:10;2.40;99.90
4453;DHT22;2239;48.152;11.584;2024-01-30T05:23:35;2.40;99.90
4453;DHT22;2239;48.152;11.584;2024-01-30T05:26:01;2.40;99.90
4453;DHT22;2239;48.152;11.584;2024-01-30T05:28:29;2.40;99.90
4453;DHT22;2239;48.152;11.584;2024-01-30T05:30:54;2.40;99.90
4453;DHT22;2239;48.152;11.584;2024-01-30T05:33:20;2.40;99.90
4453;DHT22;2239;48.152;11.584;2024-01-30T05:35:45;2.30;99.90
4453;DHT22;2239;48.152;11.584;2024-01-30T05:38:11;2.30;99.90
4453;DHT22;2239;48.152;11.584;2024-01-30T05:40:37;2.30;99.90
4453;DHT22;2239;48.152;11.584;2024-01-30T05:43:03;2.40;99.90
4453;DHT22;2239;48.152;11.584;2024-01-30T05:45:29;2.40;99.90
4453;DHT22;2239;48.152;11.584;2024-01-30T05:47:54;2.40;99.90
4453;DHT22;2239;48.152;11.584;2024-01-30T05:50:20;2.40;99.90
4453;DHT22;2239;48.152;11.584;2024-01-30T05:52:48;2.50;99.90
4453;DHT22;2239;48.152;11.584;2024-01-30T05:55:14;2.50;99.90
4453;DHT22;2239;48.152;11.584;2024-01-30T05:57:40;2.40;99.90
4453;DHT22;2239;48.152;11.584;2024-01-30T06:00:06;2.40;99.90
4453;DHT22;2239;48.152;11.584;2024-01-30T06:02:32;2.40;99.90
4453;DHT22;2239;48.152;11.584;2024-01-30T06:04:58;2.40;99.90
4453;DHT22;2239;48.152;11.584;2024-01-30T06:07:24;2.40;99.90
4453;DHT22;2239;48.152;11.584;2024-01-30T06:09:49;2.40;99.90
4453;DHT22;2239;48.152;11.584;2024-01-30T06:12:15;2.40;99.90
4453;DHT22;2239;48.152;11.584;2024-01-30T06:14:41;2.30;99.90
4453;DHT22;2239;48.152;11.584;2024-01-30T06:17:08;2.30;99.90
4453;DHT22;2239;48.152;11.584;2024-01-30T06:19:33;2.30;99.90
4453;DHT22;2239;48.152;11.584;2024-01-30T06:21:59;2.20;99.90
4453;DHT22;2239;48.152;11.584;2024-01-30T06:24:24;2.20;99.90
4453;DHT22;2239;48.152;11.584;2024-01-30T06:26:50;2.20;99.90
4453;DHT22;2239;48.152;11.584;2024-01-30T06:29:16;2.20;99.90
4453;DHT22;2239;48.152;11.584;2024-01-30T06:31:42;2.30;99.90
4453;DHT22;2239;48.152;11.584;2024-01-30T06:34:11;2.30;99.90
4453;DHT22;2239;48.152;11.584;2024-01-30T06:36:37;2.30;99.90
4453;DHT22;2239;48.152;11.584;2024-01-30T06:39:03;2.30;99.90
4453;DHT22;2239;48.152;11.584;2024-01-30T06:41:29;2.30;99.90
4453;DHT22;2239;48.152;11.584;2024-01-30T06:43:58;2.30;99.90
4453;DHT22;2239;48.152;11.584;2024-01-30T06:46:23;2.30;99.90
4453;DHT22;2239;48.152;11.584;2024-01-30T06:48:49;2.30;99.90
4453;DHT22;2239;48.152;11.584;2024-01-30T06:51:18;2.40;99.90
4453;DHT22;2239;48.152;11.584;2024-01-30T06:53:43;2.50;99.90
4453;DHT22;2239;48.152;11.584;2024-01-30T06:56:09;2.70;99.90
4453;DHT22;2239;48.152;11.584;2024-01-30T06:58:34;3.00;99.90
4453;DHT22;2239;48.152;11.584;2024-01-30T07:01:00;3.50;99.90
4453;DHT22;2239;48.152;11.584;2024-01-30T07:03:25;5.00;98.90
4453;DHT22;2239;48.152;11.584;2024-01-30T07:05:51;6.70;94.70
4453;DHT22;2239;48.152;11.584;2024-01-30T07:08:17;8.40;91.00
4453;DHT22;2239;48.152;11.584;2024-01-30T07:10:43;10.10;82.90
4453;DHT22;2239;48.152;11.584;2024-01-30T07:13:09;11.70;74.10
4453;DHT22;2239;48.152;11.584;2024-01-30T07:15:35;12.90;64.00
4453;DHT22;2239;48.152;11.584;2024-01-30T07:18:02;13.50;59.10
4453;DHT22;2239;48.152;11.584;2024-01-30T07:20:28;14.20;55.20
4453;DHT22;2239;48.152;11.584;2024-01-30T07:22:55;15.00;51.60
4453;DHT22;2239;48.152;11.584;2024-01-30T07:25:22;15.50;47.80
4453;DHT22;2239;48.152;11.584;2024-01-30T07:27:55;15.60;45.40
4453;DHT22;2239;48.152;11.584;2024-01-30T07:30:21;15.60;44.70
4453;DHT22;2239;48.152;11.584;2024-01-30T07:32:47;15.60;43.40
4453;DHT22;2239;48.152;11.584;2024-01-30T07:35:13;15.80;43.00
4453;DHT22;2239;48.152;11.584;2024-01-30T07:37:39;16.40;41.40
4453;DHT22;2239;48.152;11.584;2024-01-30T07:40:05;17.20;38.70
4453;DHT22;2239;48.152;11.584;2024-01-30T07:42:32;17.60;36.70
4453;DHT22;2239;48.152;11.584;2024-01-30T07:44:58;17.80;35.70
4453;DHT22;2239;48.152;11.584;2024-01-30T07:47:24;17.80;34.70
4453;DHT22;2239;48.152;11.584;2024-01-30T07:49:50;18.00;33.70
4453;DHT22;2239;48.152;11.584;2024-01-30T07:52:16;18.70;32.50
4453;DHT22;2239;48.152;11.584;2024-01-30T07:54:41;18.50;31.80
4453;DHT22;2239;48.152;11.584;2024-01-30T07:57:07;18.10;31.00
4453;DHT22;2239;48.152;11.584;2024-01-30T07:59:32;17.90;31.00
4453;DHT22;2239;48.152;11.584;2024-01-30T08:01:58;17.00;31.80
4453;DHT22;2239;48.152;11.584;2024-01-30T08:04:23;16.90;32.40
4453;DHT22;2239;48.152;11.584;2024-01-30T08:06:49;16.90;32.40
4453;DHT22;2239;48.152;11.584;2024-01-30T08:09:14;17.10;32.00
4453;DHT22;2239;48.152;11.584;2024-01-30T08:11:40;17.10;32.00
4453;DHT22;2239;48.152;11.584;2024-01-30T08:14:06;17.50;31.90
4453;DHT22;2239;48.152;11.584;2024-01-30T08:16:31;17.80;31.90
4453;DHT22;2239;48.152;11.584;2024-01-30T08:18:57;18.60;30.80
4453;DHT22;2239;48.152;11.584;2024-01-30T08:21:23;18.80;31.00
4453;DHT22;2239;48.152;11.584;2024-01-30T08:23:48;19.10;30.20
4453;DHT22;2239;48.152;11.584;2024-01-30T08:26:14;18.90;30.40
4453;DHT22;2239;48.152;11.584;2024-01-30T08:28:40;19.20;30.00
4453;DHT22;2239;48.152;11.584;2024-01-30T08:31:05;19.00;30.30
4453;DHT22;2239;48.152;11.584;2024-01-30T08:33:31;18.70;30.90
4453;DHT22;2239;48.152;11.584;2024-01-30T08:35:57;19.10;30.00
4453;DHT22;2239;48.152;11.584;2024-01-30T08:38:22;19.30;29.30
4453;DHT22;2239;48.152;11.584;2024-01-30T08:40:48;19.20;29.20
4453;DHT22;2239;48.152;11.584;2024-01-30T08:43:14;18.70;29.80
4453;DHT22;2239;48.152;11.584;2024-01-30T08:45:40;18.50;30.00
4453;DHT22;2239;48.152;11.584;2024-01-30T08:48:07;18.20;30.00
4453;DHT22;2239;48.152;11.584;2024-01-30T08:50:33;18.00;31.40
4453;DHT22;2239;48.152;11.584;2024-01-30T08:52:59;18.00;31.00
4453;DHT22;2239;48.152;11.584;2024-01-30T08:55:24;18.00;31.50
4453;DHT22;2239;48.152;11.584;2024-01-30T08:57:50;17.50;32.40
4453;DHT22;2239;48.152;11.584;2024-01-30T09:00:17;17.50;32.30
4453;DHT22;2239;48.152;11.584;2024-01-30T09:02:43;18.00;31.70
4453;DHT22;2239;48.152;11.584;2024-01-30T09:05:08;17.80;31.10
4453;DHT22;2239;48.152;11.584;2024-01-30T09:07:35;17.60;31.50
4453;DHT22;2239;48.152;11.584;2024-01-30T09:10:01;17.40;31.90
4453;DHT22;2239;48.152;11.584;2024-01-30T09:12:26;17.40;32.00
4453;DHT22;2239;48.152;11.584;2024-01-30T09:14:52;17.40;32.80
4453;DHT22;2239;48.152;11.584;2024-01-30T09:17:17;17.60;32.40
4453;DHT22;2239;48.152;11.584;2024-01-30T09:19:43;17.60;32.30
4453;DHT22;2239;48.152;11.584;2024-01-30T09:22:09;17.80;32.90
4453;DHT22;2239;48.152;11.584;2024-01-30T09:24:34;18.00;32.20
4453;DHT22;2239;48.152;11.584;2024-01-30T09:27:00;18.00;32.10
4453;DHT22;2239;48.152;11.584;2024-01-30T09:29:27;18.20;32.20
4453;DHT22;2239;48.152;11.584;2024-01-30T09:31:53;18.50;31.90
4453;DHT22;2239;48.152;11.584;2024-01-30T09:34:19;18.70;31.60
4453;DHT22;2239;48.152;11.584;2024-01-30T09:36:45;18.90;31.20
4453;DHT22;2239;48.152;11.584;2024-01-30T09:39:11;19.10;31.00
4453;DHT22;2239;48.152;11.584;2024-01-30T09:41:45;19.40;30.20
4453;DHT22;2239;48.152;11.584;2024-01-30T09:44:12;19.70;29.90
4453;DHT22;2239;48.152;11.584;2024-01-30T09:46:39;20.00;29.40
4453;DHT22;2239;48.152;11.584;2024-01-30T09:49:06;20.10;28.90
4453;DHT22;2239;48.152;11.584;2024-01-30T09:51:33;20.00;29.40
4453;DHT22;2239;48.152;11.584;2024-01-30T09:53:59;19.90;29.80
4453;DHT22;2239;48.152;11.584;2024-01-30T09:56:25;19.70;29.60
4453;DHT22;2239;48.152;11.584;2024-01-30T09:58:51;19.50;29.40
4453;DHT22;2239;48.152;11.584;2024-01-30T10:01:17;19.70;30.00
4453;DHT22;2239;48.152;11.584;2024-01-30T10:03:44;19.90;29.70
4453;DHT22;2239;48.152;11.584;2024-01-30T10:06:11;20.30;30.00
4453;DHT22;2239;48.152;11.584;2024-01-30T10:08:37;20.20;29.10
4453;DHT22;2239;48.152;11.584;2024-01-30T10:11:03;20.40;29.30
4453;DHT22;2239;48.152;11.584;2024-01-30T10:13:29;20.40;29.00
4453;DHT22;2239;48.152;11.584;2024-01-30T10:15:55;20.80;29.10
4453;DHT22;2239;48.152;11.584;2024-01-30T10:18:24;20.90;28.80
4453;DHT22;2239;48.152;11.584;2024-01-30T10:20:51;20.90;28.50
4453;DHT22;2239;48.152;11.584;2024-01-30T10:23:17;21.00;28.40
4453;DHT22;2239;48.152;11.584;2024-01-30T10:25:43;21.20;28.30
4453;DHT22;2239;48.152;11.584;2024-01-30T10:28:09;21.20;28.20
4453;DHT22;2239;48.152;11.584;2024-01-30T10:30:35;21.50;28.20
4453;DHT22;2239;48.152;11.584;2024-01-30T10:33:02;21.70;28.10
4453;DHT22;2239;48.152;11.584;2024-01-30T10:35:27;21.70;27.70
4453;DHT22;2239;48.152;11.584;2024-01-30T10:37:57;21.40;27.40
4453;DHT22;2239;48.152;11.584;2024-01-30T10:40:29;20.80;27.10
4453;DHT22;2239;48.152;11.584;2024-01-30T10:42:56;20.20;26.80
4453;DHT22;2239;48.152;11.584;2024-01-30T10:45:26;19.70;27.50
4453;DHT22;2239;48.152;11.584;2024-01-30T10:47:55;19.40;28.00
4453;DHT22;2239;48.152;11.584;2024-01-30T10:50:25;19.00;28.30
4453;DHT22;2239;48.152;11.584;2024-01-30T10:52:51;19.20;28.00
4453;DHT22;2239;48.152;11.584;2024-01-30T10:55:18;19.60;28.20
4453;DHT22;2239;48.152;11.584;2024-01-30T10:57:44;20.20;28.30
4453;DHT22;2239;48.152;11.584;2024-01-30T11:00:11;20.60;26.90
4453;DHT22;2239;48.152;11.584;2024-01-30T11:02:46;20.60;27.00
4453;DHT22;2239;48.152;11.584;2024-01-30T11:05:12;21.10;27.00
4453;DHT22;2239;48.152;11.584;2024-01-30T11:07:40;21.10;26.80
4453;DHT22;2239;48.152;11.584;2024-01-30T11:10:07;21.00;26.70
4453;DHT22;2239;48.152;11.584;2024-01-30T11:12:38;20.50;26.90
4453;DHT22;2239;48.152;11.584;2024-01-30T11:15:12;20.20;26.80
4453;DHT22;2239;48.152;11.584;2024-01-30T11:17:50;20.50;27.10
4453;DHT22;2239;48.152;11.584;2024-01-30T11:20:26;21.00;26.50
4453;DHT22;2239;48.152;11.584;2024-01-30T11:22:55;21.60;26.10
4453;DHT22;2239;48.152;11.584;2024-01-30T11:25:22;22.20;25.20
4453;DHT22;2239;48.152;11.584;2024-01-30T11:27:53;22.40;24.40
4453;DHT22;2239;48.152;11.584;2024-01-30T11:30:26;22.90;25.10
4453;DHT22;2239;48.152;11.584;2024-01-30T11:35:32;23.50;23.40
4453;DHT22;2239;48.152;11.584;2024-01-30T11:37:59;24.00;23.80
4453;DHT22;2239;48.152;11.584;2024-01-30T11:40:30;24.10;23.20
4453;DHT22;2239;48.152;11.584;2024-01-30T11:42:58;24.70;22.90
4453;DHT22;2239;48.152;11.584;2024-01-30T11:45:24;25.00;23.50
4453;DHT22;2239;48.152;11.584;2024-01-30T11:47:49;25.20;22.50
4453;DHT22;2239;48.152;11.584;2024-01-30T11:50:15;24.90;22.30
4453;DHT22;2239;48.152;11.584;2024-01-30T11:52:42;24.00;21.70
4453;DHT22;2239;48.152;11.584;2024-01-30T11:55:09;23.20;22.60
4453;DHT22;2239;48.152;11.584;2024-01-30T11:57:35;22.50;23.40
4453;DHT22;2239;48.152;11.584;2024-01-30T12:00:05;21.90;23.10
4453;DHT22;2239;48.152;11.584;2024-01-30T12:02:39;21.80;23.70
4453;DHT22;2239;48.152;11.584;2024-01-30T12:05:05;21.80;23.90
4453;DHT22;2239;48.152;11.584;2024-01-30T12:07:31;21.80;23.80
4453;DHT22;2239;48.152;11.584;2024-01-30T12:09:57;22.20;23.50
4453;DHT22;2239;48.152;11.584;2024-01-30T12:12:26;22.70;23.80
4453;DHT22;2239;48.152;11.584;2024-01-30T12:14:52;22.90;22.80
4453;DHT22;2239;48.152;11.584;2024-01-30T12:17:31;22.90;22.90
4453;DHT22;2239;48.152;11.584;2024-01-30T12:22:37;23.60;22.30
4453;DHT22;2239;48.152;11.584;2024-01-30T12:25:11;24.10;21.70
4453;DHT22;2239;48.152;11.584;2024-01-30T12:27:38;24.10;21.30
4453;DHT22;2239;48.152;11.584;2024-01-30T12:30:12;23.80;21.50
4453;DHT22;2239;48.152;11.584;2024-01-30T12:32:46;24.30;21.40
4453;DHT22;2239;48.152;11.584;2024-01-30T12:35:14;24.40;21.10
4453;DHT22;2239;48.152;11.584;2024-01-30T12:37:41;24.10;21.10
4453;DHT22;2239;48.152;11.584;2024-01-30T12:40:08;23.50;21.10
4453;DHT22;2239;48.152;11.584;2024-01-30T12:42:35;23.00;21.40
4453;DHT22;2239;48.152;11.584;2024-01-30T12:45:05;22.40;21.60
4453;DHT22;2239;48.152;11.584;2024-01-30T12:47:31;21.70;21.90
4453;DHT22;2239;48.152;11.584;2024-01-30T12:49:57;20.70;21.40
4453;DHT22;2239;48.152;11.584;2024-01-30T12:52:23;20.00;22.40
4453;DHT22;2239;48.152;11.584;2024-01-30T12:54:49;19.30;22.90
4453;DHT22;2239;48.152;11.584;2024-01-30T12:57:15;19.10;23.70
4453;DHT22;2239;48.152;11.584;2024-01-30T12:59:42;19.00;24.20
4453;DHT22;2239;48.152;11.584;2024-01-30T13:02:07;19.10;24.70
4453;DHT22;2239;48.152;11.584;2024-01-30T13:04:34;19.30;24.70
4453;DHT22;2239;48.152;11.584;2024-01-30T13:06:59;19.30;24.30
4453;DHT22;2239;48.152;11.584;2024-01-30T13:09:26;19.50;24.20
4453;DHT22;2239;48.152;11.584;2024-01-30T13:11:52;19.60;24.00
4453;DHT22;2239;48.152;11.584;2024-01-30T13:14:18;19.40;23.70
4453;DHT22;2239;48.152;11.584;2024-01-30T13:16:44;19.30;24.00
4453;DHT22;2239;48.152;11.584;2024-01-30T13:19:10;19.30;24.30
4453;DHT22;2239;48.152;11.584;2024-01-30T13:21:35;19.30;23.80
4453;DHT22;2239;48.152;11.584;2024-01-30T13:24:01;19.20;24.10
4453;DHT22;2239;48.152;11.584;2024-01-30T13:26:27;19.20;24.00
4453;DHT22;2239;48.152;11.584;2024-01-30T13:28:53;19.30;24.00
4453;DHT22;2239;48.152;11.584;2024-01-30T13:31:18;19.30;23.60
4453;DHT22;2239;48.152;11.584;2024-01-30T13:33:44;19.50;24.00
4453;DHT22;2239;48.152;11.584;2024-01-30T13:36:11;19.70;25.00
4453;DHT22;2239;48.152;11.584;2024-01-30T13:38:37;19.60;24.10
4453;DHT22;2239;48.152;11.584;2024-01-30T13:41:03;19.50;23.80
4453;DHT22;2239;48.152;11.584;2024-01-30T13:43:28;19.50;24.60
4453;DHT22;2239;48.152;11.584;2024-01-30T13:45:54;19.50;24.20
4453;DHT22;2239;48.152;11.584;2024-01-30T13:48:20;19.40;23.90
4453;DHT22;2239;48.152;11.584;2024-01-30T13:50:46;19.30;24.50
4453;DHT22;2239;48.152;11.584;2024-01-30T13:53:12;19.20;24.40
4453;DHT22;2239;48.152;11.584;2024-01-30T13:55:37;18.80;23.90
4453;DHT22;2239;48.152;11.584;2024-01-30T13:58:04;18.50;24.00
4453;DHT22;2239;48.152;11.584;2024-01-30T14:00:30;18.30;23.70
4453;DHT22;2239;48.152;11.584;2024-01-30T14:02:56;18.20;24.60
4453;DHT22;2239;48.152;11.584;2024-01-30T14:05:23;18.10;24.60
4453;DHT22;2239;48.152;11.584;2024-01-30T14:07:48;18.00;24.90
4453;DHT22;2239;48.152;11.584;2024-01-30T14:10:15;17.90;25.00
4453;DHT22;2239;48.152;11.584;2024-01-30T14:13:03;17.70;25.00
4453;DHT22;2239;48.152;11.584;2024-01-30T14:15:29;17.40;25.20
4453;DHT22;2239;48.152;11.584;2024-01-30T14:17:55;17.30;26.00
4453;DHT22;2239;48.152;11.584;2024-01-30T14:20:21;17.20;26.50
4453;DHT22;2239;48.152;11.584;2024-01-30T14:22:48;17.00;26.60
4453;DHT22;2239;48.152;11.584;2024-01-30T14:25:14;16.80;27.30
4453;DHT22;2239;48.152;11.584;2024-01-30T14:27:41;16.80;28.10
4453;DHT22;2239;48.152;11.584;2024-01-30T14:30:10;16.70;28.50
4453;DHT22;2239;48.152;11.584;2024-01-30T14:32:35;16.50;28.90
4453;DHT22;2239;48.152;11.584;2024-01-30T14:35:01;16.30;29.40
4453;DHT22;2239;48.152;11.584;2024-01-30T14:37:27;16.00;29.70
4453;DHT22;2239;48.152;11.584;2024-01-30T14:39:55;15.80;30.00
4453;DHT22;2239;48.152;11.584;2024-01-30T14:42:21;15.70;30.80
4453;DHT22;2239;48.152;11.584;2024-01-30T14:44:46;15.60;31.40
4453;DHT22;2239;48.152;11.584;2024-01-30T14:47:12;15.60;31.80
4453;DHT22;2239;48.152;11.584;2024-01-30T14:49:38;15.50;32.20
4453;DHT22;2239;48.152;11.584;2024-01-30T14:52:04;15.40;32.40
4453;DHT22;2239;48.152;11.584;2024-01-30T14:54:31;15.40;32.80
4453;DHT22;2239;48.152;11.584;2024-01-30T14:56:57;15.30;32.80
4453;DHT22;2239;48.152;11.584;2024-01-30T14:59:24;15.20;32.90
4453;DHT22;2239;48.152;11.584;2024-01-30T15:01:50;15.20;32.90
4453;DHT22;2239;48.152;11.584;2024-01-30T15:04:15;15.20;32.60
4453;DHT22;2239;48.152;11.584;2024-01-30T15:06:41;15.20;32.40
4453;DHT22;2239;48.152;11.584;2024-01-30T15:09:11;15.20;32.30
4453;DHT22;2239;48.152;11.584;2024-01-30T15:11:45;15.10;32.20
4453;DHT22;2239;48.152;11.584;2024-01-30T15:14:12;15.10;32.30
4453;DHT22;2239;48.152;11.584;2024-01-30T15:16:38;15.10;32.60
4453;DHT22;2239;48.152;11.584;2024-01-30T15:19:04;15.00;32.90
4453;DHT22;2239;48.152;11.584;2024-01-30T15:21:30;14.90;33.00
4453;DHT22;2239;48.152;11.584;2024-01-30T15:23:56;14.80;33.40
4453;DHT22;2239;48.152;11.584;2024-01-30T15:26:21;14.70;33.70
4453;DHT22;2239;48.152;11.584;2024-01-30T15:28:47;14.60;33.90
4453;DHT22;2239;48.152;11.584;2024-01-30T15:31:13;14.50;34.10
4453;DHT22;2239;48.152;11.584;2024-01-30T15:33:38;14.40;34.40
4453;DHT22;2239;48.152;11.584;2024-01-30T15:36:04;14.30;34.70
4453;DHT22;2239;48.152;11.584;2024-01-30T15:38:30;14.30;35.00
4453;DHT22;2239;48.152;11.584;2024-01-30T15:40:56;14.20;35.40
4453;DHT22;2239;48.152;11.584;2024-01-30T15:43:22;14.10;35.80
4453;DHT22;2239;48.152;11.584;2024-01-30T15:45:48;14.00;36.20
4453;DHT22;2239;48.152;11.584;2024-01-30T15:48:15;13.90;36.60
4453;DHT22;2239;48.152;11.584;2024-01-30T15:50:40;13.80;37.10
4453;DHT22;2239;48.152;11.584;2024-01-30T15:53:06;13.70;37.40